Hulbert, MI (49748)

12:25 PM EDT on March 25, 2017 (GMT -0400)
MTRLM4 | | Change Station

Elev 865 ft 46.19 °N, 84.98 °W | Updated 16 minutes ago

Mostly Cloudy
Mostly Cloudy
38.0 °F
Feels Like 35 °F
N
4.0
Wind Variable Wind from ENE
Gusts 14.0 mph

Today
High -- | Low -- °F
--% Chance of Precip.
Yesterday
High -- | Low -- °F
Precip. -- in
Pressure 30.34 in
Visibility 10.0 miles
Clouds Overcast 1800 ft
Windchill 35 °F
Dew Point 27 °F
Humidity 65%
Rainfall 0.03 in
Snow Depth Not available.
7:33 AM 8:00 PM
Waning Crescent, 7% visible
METAR KERY 251614Z AUTO 11007KT 10SM OVC018 02/M01 A3034 RMK AO2 T00201013
Pressure 30.34 in
Visibility 10.0 miles
Clouds Overcast 1800 ft
Windchill 35 °F
Dew Point 27 °F
Humidity 65%
Rainfall 0.03 in
Snow Depth Not available.
7:33 AM 8:00 PM
Waning Crescent, 7% visible
METAR KERY 251614Z AUTO 11007KT 10SM OVC018 02/M01 A3034 RMK AO2 T00201013

Get Severe Weather Alerts

Thanks for signing up!

Be on the lookout for a verification email in your inbox.

You'll start receiving the daily forecast at 8 AM.

×

10-Day Weather Forecast

Almanac

Astronomy

Mar. 25, 2017 Rise Set
Actual Time
Civil Twilight
Nautical Twilight
Astronomical Twilight
Moon
Length of Visible Light
Length of Day
Tomorrow will be .
, % of the Moon is Illuminated

Today's Extremes

State Highs State Lows

Community

WunderPhotos

Upload Photos

1,962,540 photos uploaded!

WunderBlog® & News

Nearby

Air Quality

  Air Quality AQ Index Pollutant
Not available.

Snow Depth

Station Depth Elevation

Earthquake Activity

City Distance Mag. Time & Date
Minimum magnitude displayed is 2.5.

Earthquake Activity

City Distance Mag. Time & Date
Minimum magnitude displayed is 2.5.

Coastal Water Temperatures

Place Temperature

Stations

Nearby Weather Stations

Station Location Temp. Windchill Dew Point Humidity Wind Precip. Elev Updated Type
                   

Watches & Warnings

There are currently no watches in effect.